sensor_id;sensor_type;location;lat;lon;timestamp;P1;durP1;ratioP1;P2;durP2;ratioP2
63016;SDS011;50274;45.640;11.756;2023-06-14T00:02:03;5.70;;;3.28;;
63016;SDS011;50274;45.640;11.756;2023-06-14T00:04:33;7.40;;;3.50;;
63016;SDS011;50274;45.640;11.756;2023-06-14T00:06:58;7.85;;;3.55;;
63016;SDS011;50274;45.640;11.756;2023-06-14T00:09:24;6.00;;;2.80;;
63016;SDS011;50274;45.640;11.756;2023-06-14T00:11:50;6.10;;;3.07;;
63016;SDS011;50274;45.640;11.756;2023-06-14T00:14:16;5.70;;;3.10;;
63016;SDS011;50274;45.640;11.756;2023-06-14T00:16:41;6.00;;;3.07;;
63016;SDS011;50274;45.640;11.756;2023-06-14T00:19:08;6.88;;;3.08;;
63016;SDS011;50274;45.640;11.756;2023-06-14T00:21:35;8.10;;;3.40;;
63016;SDS011;50274;45.640;11.756;2023-06-14T00:24:04;6.13;;;3.58;;
63016;SDS011;50274;45.640;11.756;2023-06-14T00:26:30;5.90;;;3.40;;
63016;SDS011;50274;45.640;11.756;2023-06-14T00:28:56;5.60;;;3.15;;
63016;SDS011;50274;45.640;11.756;2023-06-14T00:31:22;8.40;;;3.63;;
63016;SDS011;50274;45.640;11.756;2023-06-14T00:33:48;7.18;;;4.00;;
63016;SDS011;50274;45.640;11.756;2023-06-14T00:36:14;7.13;;;3.70;;
63016;SDS011;50274;45.640;11.756;2023-06-14T00:38:40;6.00;;;3.55;;
63016;SDS011;50274;45.640;11.756;2023-06-14T00:41:05;8.37;;;4.03;;
63016;SDS011;50274;45.640;11.756;2023-06-14T00:43:31;8.35;;;4.22;;
63016;SDS011;50274;45.640;11.756;2023-06-14T00:45:59;6.88;;;3.83;;
63016;SDS011;50274;45.640;11.756;2023-06-14T00:48:25;6.40;;;4.13;;
63016;SDS011;50274;45.640;11.756;2023-06-14T00:50:52;6.03;;;3.60;;
63016;SDS011;50274;45.640;11.756;2023-06-14T00:53:19;6.60;;;3.70;;
63016;SDS011;50274;45.640;11.756;2023-06-14T00:55:48;7.32;;;4.03;;
63016;SDS011;50274;45.640;11.756;2023-06-14T00:58:13;7.30;;;4.32;;
63016;SDS011;50274;45.640;11.756;2023-06-14T01:00:40;5.73;;;3.97;;
63016;SDS011;50274;45.640;11.756;2023-06-14T01:03:05;7.25;;;4.35;;
63016;SDS011;50274;45.640;11.756;2023-06-14T01:05:31;9.02;;;4.07;;
63016;SDS011;50274;45.640;11.756;2023-06-14T01:11:12;7.75;;;3.90;;
63016;SDS011;50274;45.640;11.756;2023-06-14T01:13:43;8.07;;;3.78;;
63016;SDS011;50274;45.640;11.756;2023-06-14T01:16:11;6.60;;;4.22;;
63016;SDS011;50274;45.640;11.756;2023-06-14T01:18:37;7.28;;;4.53;;
63016;SDS011;50274;45.640;11.756;2023-06-14T01:21:04;8.73;;;4.40;;
63016;SDS011;50274;45.640;11.756;2023-06-14T01:23:31;6.50;;;4.15;;
63016;SDS011;50274;45.640;11.756;2023-06-14T01:25:58;6.70;;;4.47;;
63016;SDS011;50274;45.640;11.756;2023-06-14T01:28:25;7.20;;;4.10;;
63016;SDS011;50274;45.640;11.756;2023-06-14T01:30:57;6.70;;;3.92;;
63016;SDS011;50274;45.640;11.756;2023-06-14T01:33:26;8.47;;;4.10;;
63016;SDS011;50274;45.640;11.756;2023-06-14T01:35:53;7.22;;;3.75;;
63016;SDS011;50274;45.640;11.756;2023-06-14T01:38:21;8.18;;;4.18;;
63016;SDS011;50274;45.640;11.756;2023-06-14T01:40:49;7.32;;;4.00;;
63016;SDS011;50274;45.640;11.756;2023-06-14T01:43:16;6.72;;;4.00;;
63016;SDS011;50274;45.640;11.756;2023-06-14T01:45:43;6.13;;;3.77;;
63016;SDS011;50274;45.640;11.756;2023-06-14T01:48:11;6.70;;;4.00;;
63016;SDS011;50274;45.640;11.756;2023-06-14T01:50:37;6.18;;;3.80;;
63016;SDS011;50274;45.640;11.756;2023-06-14T01:53:03;7.00;;;3.83;;
63016;SDS011;50274;45.640;11.756;2023-06-14T01:55:32;6.37;;;3.93;;
63016;SDS011;50274;45.640;11.756;2023-06-14T01:58:05;6.40;;;3.83;;
63016;SDS011;50274;45.640;11.756;2023-06-14T02:00:31;9.77;;;4.18;;
63016;SDS011;50274;45.640;11.756;2023-06-14T02:02:57;6.65;;;3.90;;
63016;SDS011;50274;45.640;11.756;2023-06-14T02:05:23;6.27;;;3.67;;
63016;SDS011;50274;45.640;11.756;2023-06-14T02:07:49;5.78;;;3.63;;
63016;SDS011;50274;45.640;11.756;2023-06-14T02:10:15;6.97;;;4.00;;
63016;SDS011;50274;45.640;11.756;2023-06-14T02:12:42;6.78;;;4.00;;
63016;SDS011;50274;45.640;11.756;2023-06-14T02:15:09;6.53;;;4.00;;
63016;SDS011;50274;45.640;11.756;2023-06-14T02:17:41;6.55;;;3.95;;
63016;SDS011;50274;45.640;11.756;2023-06-14T02:20:08;7.38;;;3.75;;
63016;SDS011;50274;45.640;11.756;2023-06-14T02:22:34;6.18;;;3.42;;
63016;SDS011;50274;45.640;11.756;2023-06-14T02:25:00;5.70;;;3.70;;
63016;SDS011;50274;45.640;11.756;2023-06-14T02:27:26;6.03;;;3.63;;
63016;SDS011;50274;45.640;11.756;2023-06-14T02:29:52;6.57;;;3.70;;
63016;SDS011;50274;45.640;11.756;2023-06-14T02:32:17;6.37;;;3.40;;
63016;SDS011;50274;45.640;11.756;2023-06-14T02:34:43;5.80;;;3.47;;
63016;SDS011;50274;45.640;11.756;2023-06-14T02:37:09;5.95;;;3.20;;
63016;SDS011;50274;45.640;11.756;2023-06-14T02:39:36;5.70;;;3.53;;
63016;SDS011;50274;45.640;11.756;2023-06-14T02:42:02;8.88;;;3.88;;
63016;SDS011;50274;45.640;11.756;2023-06-14T02:44:28;6.70;;;3.38;;
63016;SDS011;50274;45.640;11.756;2023-06-14T02:46:54;8.90;;;3.50;;
63016;SDS011;50274;45.640;11.756;2023-06-14T02:49:21;6.83;;;3.30;;
63016;SDS011;50274;45.640;11.756;2023-06-14T02:51:47;5.78;;;3.47;;
63016;SDS011;50274;45.640;11.756;2023-06-14T02:54:13;7.63;;;3.70;;
63016;SDS011;50274;45.640;11.756;2023-06-14T02:56:39;9.93;;;3.53;;
63016;SDS011;50274;45.640;11.756;2023-06-14T02:59:05;6.27;;;3.73;;
63016;SDS011;50274;45.640;11.756;2023-06-14T03:01:32;6.07;;;3.88;;
63016;SDS011;50274;45.640;11.756;2023-06-14T03:04:06;6.28;;;3.50;;
63016;SDS011;50274;45.640;11.756;2023-06-14T03:06:32;7.25;;;3.47;;
63016;SDS011;50274;45.640;11.756;2023-06-14T03:08:59;6.57;;;3.23;;
63016;SDS011;50274;45.640;11.756;2023-06-14T03:11:29;5.40;;;3.10;;
63016;SDS011;50274;45.640;11.756;2023-06-14T03:13:55;6.32;;;3.47;;
63016;SDS011;50274;45.640;11.756;2023-06-14T03:16:22;8.25;;;3.85;;
63016;SDS011;50274;45.640;11.756;2023-06-14T03:18:50;7.50;;;3.85;;
63016;SDS011;50274;45.640;11.756;2023-06-14T03:21:16;7.67;;;3.40;;
63016;SDS011;50274;45.640;11.756;2023-06-14T03:23:43;10.18;;;3.45;;
63016;SDS011;50274;45.640;11.756;2023-06-14T03:26:09;6.90;;;3.35;;
63016;SDS011;50274;45.640;11.756;2023-06-14T03:28:40;7.00;;;3.65;;
63016;SDS011;50274;45.640;11.756;2023-06-14T03:31:07;9.30;;;3.88;;
63016;SDS011;50274;45.640;11.756;2023-06-14T03:33:34;6.50;;;3.77;;
63016;SDS011;50274;45.640;11.756;2023-06-14T03:36:01;8.20;;;3.85;;
63016;SDS011;50274;45.640;11.756;2023-06-14T03:38:28;10.30;;;3.70;;
63016;SDS011;50274;45.640;11.756;2023-06-14T03:40:54;6.97;;;3.40;;
63016;SDS011;50274;45.640;11.756;2023-06-14T03:43:20;6.45;;;3.40;;
63016;SDS011;50274;45.640;11.756;2023-06-14T03:45:46;6.43;;;3.40;;
63016;SDS011;50274;45.640;11.756;2023-06-14T03:48:12;7.50;;;3.42;;
63016;SDS011;50274;45.640;11.756;2023-06-14T03:50:38;7.32;;;3.45;;
63016;SDS011;50274;45.640;11.756;2023-06-14T03:53:04;5.73;;;3.10;;
63016;SDS011;50274;45.640;11.756;2023-06-14T03:55:31;5.85;;;3.25;;
63016;SDS011;50274;45.640;11.756;2023-06-14T03:57:58;6.78;;;3.50;;
63016;SDS011;50274;45.640;11.756;2023-06-14T04:00:24;9.35;;;3.50;;
63016;SDS011;50274;45.640;11.756;2023-06-14T04:02:51;6.43;;;3.28;;
63016;SDS011;50274;45.640;11.756;2023-06-14T04:05:17;6.17;;;3.23;;
63016;SDS011;50274;45.640;11.756;2023-06-14T04:07:44;6.72;;;3.15;;
63016;SDS011;50274;45.640;11.756;2023-06-14T04:10:14;6.10;;;3.10;;
63016;SDS011;50274;45.640;11.756;2023-06-14T04:12:41;6.13;;;3.30;;
63016;SDS011;50274;45.640;11.756;2023-06-14T04:15:07;5.57;;;3.58;;
63016;SDS011;50274;45.640;11.756;2023-06-14T04:17:36;5.83;;;2.93;;
63016;SDS011;50274;45.640;11.756;2023-06-14T04:20:02;5.72;;;3.10;;
63016;SDS011;50274;45.640;11.756;2023-06-14T04:22:30;6.85;;;3.28;;
63016;SDS011;50274;45.640;11.756;2023-06-14T04:24:57;6.55;;;3.40;;
63016;SDS011;50274;45.640;11.756;2023-06-14T04:27:26;6.72;;;3.20;;
63016;SDS011;50274;45.640;11.756;2023-06-14T04:29:53;9.70;;;3.00;;
63016;SDS011;50274;45.640;11.756;2023-06-14T04:32:25;5.25;;;2.45;;
63016;SDS011;50274;45.640;11.756;2023-06-14T04:34:54;6.38;;;2.80;;
63016;SDS011;50274;45.640;11.756;2023-06-14T04:37:23;6.22;;;2.60;;
63016;SDS011;50274;45.640;11.756;2023-06-14T04:39:54;5.47;;;2.72;;
63016;SDS011;50274;45.640;11.756;2023-06-14T04:42:21;7.47;;;2.20;;
63016;SDS011;50274;45.640;11.756;2023-06-14T04:44:50;5.40;;;2.78;;
63016;SDS011;50274;45.640;11.756;2023-06-14T04:47:16;5.35;;;2.58;;
63016;SDS011;50274;45.640;11.756;2023-06-14T04:49:43;5.28;;;2.80;;
63016;SDS011;50274;45.640;11.756;2023-06-14T04:52:09;4.60;;;2.60;;
63016;SDS011;50274;45.640;11.756;2023-06-14T04:54:38;5.00;;;2.47;;
63016;SDS011;50274;45.640;11.756;2023-06-14T04:57:08;7.28;;;2.60;;
63016;SDS011;50274;45.640;11.756;2023-06-14T04:59:39;6.10;;;2.40;;
63016;SDS011;50274;45.640;11.756;2023-06-14T05:02:05;5.60;;;2.63;;
63016;SDS011;50274;45.640;11.756;2023-06-14T05:04:32;5.50;;;2.60;;
63016;SDS011;50274;45.640;11.756;2023-06-14T05:06:58;7.30;;;2.63;;
63016;SDS011;50274;45.640;11.756;2023-06-14T05:09:24;5.60;;;2.47;;
63016;SDS011;50274;45.640;11.756;2023-06-14T05:11:50;5.45;;;2.78;;
63016;SDS011;50274;45.640;11.756;2023-06-14T05:14:16;6.63;;;2.70;;
63016;SDS011;50274;45.640;11.756;2023-06-14T05:16:43;6.20;;;2.50;;
63016;SDS011;50274;45.640;11.756;2023-06-14T05:19:09;7.20;;;2.88;;
63016;SDS011;50274;45.640;11.756;2023-06-14T05:21:36;7.22;;;2.85;;
63016;SDS011;50274;45.640;11.756;2023-06-14T05:24:02;6.65;;;2.92;;
63016;SDS011;50274;45.640;11.756;2023-06-14T05:26:28;5.97;;;2.30;;
63016;SDS011;50274;45.640;11.756;2023-06-14T05:28:55;4.70;;;2.65;;
63016;SDS011;50274;45.640;11.756;2023-06-14T05:31:22;8.45;;;3.00;;
63016;SDS011;50274;45.640;11.756;2023-06-14T05:33:49;6.40;;;2.60;;
63016;SDS011;50274;45.640;11.756;2023-06-14T05:36:15;8.73;;;3.17;;
63016;SDS011;50274;45.640;11.756;2023-06-14T05:38:41;5.30;;;2.53;;
63016;SDS011;50274;45.640;11.756;2023-06-14T05:41:07;5.75;;;3.10;;
63016;SDS011;50274;45.640;11.756;2023-06-14T05:43:33;5.82;;;2.70;;
63016;SDS011;50274;45.640;11.756;2023-06-14T05:45:59;5.93;;;2.95;;
63016;SDS011;50274;45.640;11.756;2023-06-14T05:48:25;5.37;;;2.93;;
63016;SDS011;50274;45.640;11.756;2023-06-14T05:50:51;5.07;;;2.33;;
63016;SDS011;50274;45.640;11.756;2023-06-14T05:53:17;6.13;;;3.30;;
63016;SDS011;50274;45.640;11.756;2023-06-14T05:55:43;6.13;;;2.80;;
63016;SDS011;50274;45.640;11.756;2023-06-14T05:58:09;5.82;;;2.80;;
63016;SDS011;50274;45.640;11.756;2023-06-14T06:00:35;6.00;;;2.50;;
63016;SDS011;50274;45.640;11.756;2023-06-14T06:03:01;6.18;;;3.05;;
63016;SDS011;50274;45.640;11.756;2023-06-14T06:05:27;5.73;;;2.70;;
63016;SDS011;50274;45.640;11.756;2023-06-14T06:07:53;7.03;;;3.00;;
63016;SDS011;50274;45.640;11.756;2023-06-14T06:10:19;8.37;;;3.00;;
63016;SDS011;50274;45.640;11.756;2023-06-14T06:12:44;8.07;;;3.10;;
63016;SDS011;50274;45.640;11.756;2023-06-14T06:15:12;4.85;;;2.63;;
63016;SDS011;50274;45.640;11.756;2023-06-14T06:17:47;5.93;;;2.55;;
63016;SDS011;50274;45.640;11.756;2023-06-14T06:20:12;4.47;;;2.40;;
63016;SDS011;50274;45.640;11.756;2023-06-14T06:22:39;5.00;;;2.20;;
63016;SDS011;50274;45.640;11.756;2023-06-14T06:25:04;5.18;;;2.75;;
63016;SDS011;50274;45.640;11.756;2023-06-14T06:27:31;7.03;;;2.50;;
63016;SDS011;50274;45.640;11.756;2023-06-14T06:29:57;5.03;;;2.23;;
63016;SDS011;50274;45.640;11.756;2023-06-14T06:32:23;7.22;;;2.50;;
63016;SDS011;50274;45.640;11.756;2023-06-14T06:34:49;5.13;;;1.98;;
63016;SDS011;50274;45.640;11.756;2023-06-14T06:37:15;4.87;;;2.30;;
63016;SDS011;50274;45.640;11.756;2023-06-14T06:39:41;5.05;;;2.40;;
63016;SDS011;50274;45.640;11.756;2023-06-14T06:42:07;5.63;;;2.30;;
63016;SDS011;50274;45.640;11.756;2023-06-14T06:44:33;5.45;;;2.38;;
63016;SDS011;50274;45.640;11.756;2023-06-14T06:46:59;5.77;;;2.70;;
63016;SDS011;50274;45.640;11.756;2023-06-14T06:49:25;4.35;;;2.33;;
63016;SDS011;50274;45.640;11.756;2023-06-14T06:52:03;5.32;;;2.35;;
63016;SDS011;50274;45.640;11.756;2023-06-14T06:54:31;5.13;;;2.70;;
63016;SDS011;50274;45.640;11.756;2023-06-14T06:56:57;6.25;;;2.75;;
63016;SDS011;50274;45.640;11.756;2023-06-14T06:59:24;4.78;;;2.40;;
63016;SDS011;50274;45.640;11.756;2023-06-14T07:01:50;5.95;;;2.53;;
63016;SDS011;50274;45.640;11.756;2023-06-14T07:04:16;5.20;;;2.40;;
63016;SDS011;50274;45.640;11.756;2023-06-14T07:06:42;4.70;;;2.33;;
63016;SDS011;50274;45.640;11.756;2023-06-14T07:09:08;4.88;;;2.50;;
63016;SDS011;50274;45.640;11.756;2023-06-14T07:11:38;5.60;;;2.50;;
63016;SDS011;50274;45.640;11.756;2023-06-14T07:14:04;6.00;;;2.80;;
63016;SDS011;50274;45.640;11.756;2023-06-14T07:16:30;7.90;;;2.53;;
63016;SDS011;50274;45.640;11.756;2023-06-14T07:18:56;7.63;;;2.75;;
63016;SDS011;50274;45.640;11.756;2023-06-14T07:21:22;5.35;;;2.33;;
63016;SDS011;50274;45.640;11.756;2023-06-14T07:23:48;6.53;;;2.90;;
63016;SDS011;50274;45.640;11.756;2023-06-14T07:26:14;4.57;;;2.38;;
63016;SDS011;50274;45.640;11.756;2023-06-14T07:28:39;5.20;;;2.80;;
63016;SDS011;50274;45.640;11.756;2023-06-14T07:31:05;4.83;;;2.60;;
63016;SDS011;50274;45.640;11.756;2023-06-14T07:33:31;7.28;;;2.90;;
63016;SDS011;50274;45.640;11.756;2023-06-14T07:35:57;4.90;;;2.50;;
63016;SDS011;50274;45.640;11.756;2023-06-14T07:38:23;5.57;;;2.50;;
63016;SDS011;50274;45.640;11.756;2023-06-14T07:40:49;5.13;;;2.85;;
63016;SDS011;50274;45.640;11.756;2023-06-14T07:43:14;5.60;;;3.03;;
63016;SDS011;50274;45.640;11.756;2023-06-14T07:45:40;6.93;;;2.70;;
63016;SDS011;50274;45.640;11.756;2023-06-14T07:48:06;7.28;;;3.47;;
63016;SDS011;50274;45.640;11.756;2023-06-14T07:50:32;5.30;;;2.93;;
63016;SDS011;50274;45.640;11.756;2023-06-14T07:52:57;6.18;;;2.90;;
63016;SDS011;50274;45.640;11.756;2023-06-14T07:55:23;6.67;;;2.73;;
63016;SDS011;50274;45.640;11.756;2023-06-14T07:57:50;5.90;;;3.20;;
63016;SDS011;50274;45.640;11.756;2023-06-14T08:00:16;6.15;;;2.90;;
63016;SDS011;50274;45.640;11.756;2023-06-14T08:02:43;6.30;;;2.80;;
63016;SDS011;50274;45.640;11.756;2023-06-14T08:05:10;5.90;;;2.78;;
63016;SDS011;50274;45.640;11.756;2023-06-14T08:07:37;5.20;;;2.50;;
63016;SDS011;50274;45.640;11.756;2023-06-14T08:10:04;6.57;;;2.80;;
63016;SDS011;50274;45.640;11.756;2023-06-14T08:12:31;7.10;;;2.97;;
63016;SDS011;50274;45.640;11.756;2023-06-14T08:14:57;6.88;;;3.10;;
63016;SDS011;50274;45.640;11.756;2023-06-14T08:17:23;5.63;;;2.83;;
63016;SDS011;50274;45.640;11.756;2023-06-14T08:19:50;5.47;;;2.97;;
63016;SDS011;50274;45.640;11.756;2023-06-14T08:22:15;6.25;;;3.25;;
63016;SDS011;50274;45.640;11.756;2023-06-14T08:24:43;5.70;;;2.88;;
63016;SDS011;50274;45.640;11.756;2023-06-14T08:27:09;8.60;;;3.22;;
63016;SDS011;50274;45.640;11.756;2023-06-14T08:29:35;6.63;;;2.87;;
63016;SDS011;50274;45.640;11.756;2023-06-14T08:32:01;6.60;;;2.90;;
63016;SDS011;50274;45.640;11.756;2023-06-14T08:34:27;5.30;;;2.80;;
63016;SDS011;50274;45.640;11.756;2023-06-14T08:36:53;6.43;;;2.77;;
63016;SDS011;50274;45.640;11.756;2023-06-14T08:39:18;6.15;;;3.00;;
63016;SDS011;50274;45.640;11.756;2023-06-14T08:41:45;6.57;;;2.78;;
63016;SDS011;50274;45.640;11.756;2023-06-14T08:44:13;7.78;;;2.90;;
63016;SDS011;50274;45.640;11.756;2023-06-14T08:46:42;8.67;;;3.10;;
63016;SDS011;50274;45.640;11.756;2023-06-14T08:49:10;8.38;;;3.00;;
63016;SDS011;50274;45.640;11.756;2023-06-14T08:51:37;5.22;;;2.88;;
63016;SDS011;50274;45.640;11.756;2023-06-14T08:54:05;7.35;;;2.72;;
63016;SDS011;50274;45.640;11.756;2023-06-14T08:56:32;5.63;;;3.05;;
63016;SDS011;50274;45.640;11.756;2023-06-14T08:58:59;5.70;;;2.83;;
63016;SDS011;50274;45.640;11.756;2023-06-14T09:01:28;5.50;;;2.55;;
63016;SDS011;50274;45.640;11.756;2023-06-14T09:03:53;5.78;;;2.90;;
63016;SDS011;50274;45.640;11.756;2023-06-14T09:06:22;8.63;;;2.88;;
63016;SDS011;50274;45.640;11.756;2023-06-14T09:08:49;5.30;;;3.17;;
63016;SDS011;50274;45.640;11.756;2023-06-14T09:11:16;6.30;;;2.87;;
63016;SDS011;50274;45.640;11.756;2023-06-14T09:13:44;5.50;;;2.70;;
63016;SDS011;50274;45.640;11.756;2023-06-14T09:16:12;6.25;;;3.13;;
63016;SDS011;50274;45.640;11.756;2023-06-14T09:21:13;5.95;;;3.33;;
63016;SDS011;50274;45.640;11.756;2023-06-14T09:23:40;6.47;;;2.93;;
63016;SDS011;50274;45.640;11.756;2023-06-14T09:26:11;6.57;;;3.08;;
63016;SDS011;50274;45.640;11.756;2023-06-14T09:28:41;6.28;;;3.20;;
63016;SDS011;50274;45.640;11.756;2023-06-14T09:31:11;10.98;;;3.28;;
63016;SDS011;50274;45.640;11.756;2023-06-14T09:33:38;7.63;;;3.20;;
63016;SDS011;50274;45.640;11.756;2023-06-14T09:36:10;6.03;;;2.97;;
63016;SDS011;50274;45.640;11.756;2023-06-14T09:38:39;10.38;;;3.28;;
63016;SDS011;50274;45.640;11.756;2023-06-14T09:41:06;5.97;;;2.90;;
63016;SDS011;50274;45.640;11.756;2023-06-14T09:43:33;6.32;;;3.08;;
63016;SDS011;50274;45.640;11.756;2023-06-14T09:46:02;6.68;;;2.88;;
63016;SDS011;50274;45.640;11.756;2023-06-14T09:48:29;5.73;;;2.83;;
63016;SDS011;50274;45.640;11.756;2023-06-14T09:50:55;5.35;;;2.72;;
63016;SDS011;50274;45.640;11.756;2023-06-14T09:53:23;5.25;;;2.90;;
63016;SDS011;50274;45.640;11.756;2023-06-14T09:55:50;5.85;;;2.80;;
63016;SDS011;50274;45.640;11.756;2023-06-14T09:58:19;8.13;;;2.90;;
63016;SDS011;50274;45.640;11.756;2023-06-14T10:00:48;6.40;;;2.80;;
63016;SDS011;50274;45.640;11.756;2023-06-14T10:03:21;7.97;;;3.03;;
63016;SDS011;50274;45.640;11.756;2023-06-14T10:05:50;7.53;;;3.10;;
63016;SDS011;50274;45.640;11.756;2023-06-14T10:08:22;5.55;;;3.17;;
63016;SDS011;50274;45.640;11.756;2023-06-14T10:10:51;6.37;;;3.07;;
63016;SDS011;50274;45.640;11.756;2023-06-14T10:13:17;7.90;;;3.00;;
63016;SDS011;50274;45.640;11.756;2023-06-14T10:18:21;5.80;;;2.90;;
63016;SDS011;50274;45.640;11.756;2023-06-14T10:20:55;5.75;;;2.58;;
63016;SDS011;50274;45.640;11.756;2023-06-14T10:23:42;6.73;;;3.07;;
63016;SDS011;50274;45.640;11.756;2023-06-14T10:26:13;7.18;;;2.63;;
63016;SDS011;50274;45.640;11.756;2023-06-14T10:31:44;5.63;;;2.75;;
63016;SDS011;50274;45.640;11.756;2023-06-14T10:34:12;8.10;;;3.28;;
63016;SDS011;50274;45.640;11.756;2023-06-14T10:36:50;7.30;;;2.70;;
63016;SDS011;50274;45.640;11.756;2023-06-14T10:39:41;6.43;;;3.40;;
63016;SDS011;50274;45.640;11.756;2023-06-14T10:42:10;7.43;;;3.10;;
63016;SDS011;50274;45.640;11.756;2023-06-14T10:47:26;5.88;;;3.33;;
63016;SDS011;50274;45.640;11.756;2023-06-14T10:49:57;7.07;;;3.03;;
63016;SDS011;50274;45.640;11.756;2023-06-14T10:52:27;6.32;;;3.30;;
63016;SDS011;50274;45.640;11.756;2023-06-14T10:57:38;6.40;;;2.90;;
63016;SDS011;50274;45.640;11.756;2023-06-14T11:00:08;7.40;;;3.40;;
63016;SDS011;50274;45.640;11.756;2023-06-14T11:05:29;7.88;;;2.83;;
63016;SDS011;50274;45.640;11.756;2023-06-14T11:10:42;5.68;;;2.78;;
63016;SDS011;50274;45.640;11.756;2023-06-14T11:13:10;6.10;;;3.03;;
63016;SDS011;50274;45.640;11.756;2023-06-14T11:15:37;7.37;;;3.20;;
63016;SDS011;50274;45.640;11.756;2023-06-14T11:18:04;6.68;;;2.65;;
63016;SDS011;50274;45.640;11.756;2023-06-14T11:20:32;6.32;;;2.65;;
63016;SDS011;50274;45.640;11.756;2023-06-14T11:23:00;6.32;;;2.35;;
63016;SDS011;50274;45.640;11.756;2023-06-14T11:25:27;5.97;;;2.75;;
63016;SDS011;50274;45.640;11.756;2023-06-14T11:27:53;7.10;;;2.50;;
63016;SDS011;50274;45.640;11.756;2023-06-14T11:30:20;7.85;;;2.90;;
63016;SDS011;50274;45.640;11.756;2023-06-14T11:32:47;7.38;;;3.08;;
63016;SDS011;50274;45.640;11.756;2023-06-14T11:35:17;6.57;;;2.88;;
63016;SDS011;50274;45.640;11.756;2023-06-14T11:37:44;5.50;;;2.95;;
63016;SDS011;50274;45.640;11.756;2023-06-14T11:40:10;5.93;;;2.67;;
63016;SDS011;50274;45.640;11.756;2023-06-14T11:42:38;5.60;;;2.58;;
63016;SDS011;50274;45.640;11.756;2023-06-14T11:45:12;5.57;;;3.03;;
63016;SDS011;50274;45.640;11.756;2023-06-14T11:47:38;7.32;;;3.03;;
63016;SDS011;50274;45.640;11.756;2023-06-14T11:50:06;5.85;;;3.13;;
63016;SDS011;50274;45.640;11.756;2023-06-14T11:52:33;10.07;;;3.43;;
63016;SDS011;50274;45.640;11.756;2023-06-14T11:55:00;6.35;;;3.47;;
63016;SDS011;50274;45.640;11.756;2023-06-14T11:57:30;6.45;;;2.78;;
63016;SDS011;50274;45.640;11.756;2023-06-14T11:59:58;6.10;;;3.17;;
63016;SDS011;50274;45.640;11.756;2023-06-14T12:02:24;7.90;;;3.23;;
63016;SDS011;50274;45.640;11.756;2023-06-14T12:04:52;8.60;;;3.00;;
63016;SDS011;50274;45.640;11.756;2023-06-14T12:07:18;5.35;;;2.88;;
63016;SDS011;50274;45.640;11.756;2023-06-14T12:12:20;6.57;;;3.13;;
63016;SDS011;50274;45.640;11.756;2023-06-14T12:14:47;7.53;;;3.33;;
63016;SDS011;50274;45.640;11.756;2023-06-14T12:17:16;6.32;;;2.85;;
63016;SDS011;50274;45.640;11.756;2023-06-14T12:19:45;5.28;;;3.05;;
63016;SDS011;50274;45.640;11.756;2023-06-14T12:22:11;12.30;;;3.20;;
63016;SDS011;50274;45.640;11.756;2023-06-14T12:24:38;6.27;;;2.80;;
63016;SDS011;50274;45.640;11.756;2023-06-14T12:27:07;5.75;;;3.17;;
63016;SDS011;50274;45.640;11.756;2023-06-14T12:29:33;6.60;;;3.05;;
63016;SDS011;50274;45.640;11.756;2023-06-14T12:32:00;7.43;;;3.15;;
63016;SDS011;50274;45.640;11.756;2023-06-14T12:34:26;6.00;;;2.77;;
63016;SDS011;50274;45.640;11.756;2023-06-14T12:36:52;5.90;;;2.97;;
63016;SDS011;50274;45.640;11.756;2023-06-14T12:39:19;6.05;;;2.90;;
63016;SDS011;50274;45.640;11.756;2023-06-14T12:41:46;6.05;;;3.10;;
63016;SDS011;50274;45.640;11.756;2023-06-14T12:44:12;7.10;;;3.00;;
63016;SDS011;50274;45.640;11.756;2023-06-14T12:46:38;7.03;;;2.70;;
63016;SDS011;50274;45.640;11.756;2023-06-14T12:49:05;6.07;;;2.97;;
63016;SDS011;50274;45.640;11.756;2023-06-14T12:51:32;7.40;;;2.70;;
63016;SDS011;50274;45.640;11.756;2023-06-14T12:53:58;6.30;;;2.67;;
63016;SDS011;50274;45.640;11.756;2023-06-14T12:56:24;5.57;;;2.72;;
63016;SDS011;50274;45.640;11.756;2023-06-14T12:58:51;6.57;;;3.25;;
63016;SDS011;50274;45.640;11.756;2023-06-14T13:01:17;6.57;;;3.25;;
63016;SDS011;50274;45.640;11.756;2023-06-14T13:03:43;6.70;;;3.00;;
63016;SDS011;50274;45.640;11.756;2023-06-14T13:06:10;6.03;;;3.03;;
63016;SDS011;50274;45.640;11.756;2023-06-14T13:08:36;5.90;;;3.13;;
63016;SDS011;50274;45.640;11.756;2023-06-14T13:11:01;5.43;;;3.20;;
63016;SDS011;50274;45.640;11.756;2023-06-14T13:13:27;5.68;;;2.95;;
63016;SDS011;50274;45.640;11.756;2023-06-14T13:15:53;5.97;;;2.90;;
63016;SDS011;50274;45.640;11.756;2023-06-14T13:18:19;5.43;;;2.80;;
63016;SDS011;50274;45.640;11.756;2023-06-14T13:20:45;6.30;;;3.00;;
63016;SDS011;50274;45.640;11.756;2023-06-14T13:23:12;5.35;;;2.80;;
63016;SDS011;50274;45.640;11.756;2023-06-14T13:25:38;5.07;;;2.53;;
63016;SDS011;50274;45.640;11.756;2023-06-14T13:28:04;5.67;;;2.60;;
63016;SDS011;50274;45.640;11.756;2023-06-14T13:30:31;7.65;;;3.17;;
63016;SDS011;50274;45.640;11.756;2023-06-14T13:32:58;7.30;;;2.63;;
63016;SDS011;50274;45.640;11.756;2023-06-14T13:35:26;8.27;;;2.88;;
63016;SDS011;50274;45.640;11.756;2023-06-14T13:37:52;9.50;;;3.42;;
63016;SDS011;50274;45.640;11.756;2023-06-14T13:40:18;7.23;;;3.30;;
63016;SDS011;50274;45.640;11.756;2023-06-14T13:42:45;8.05;;;3.22;;
63016;SDS011;50274;45.640;11.756;2023-06-14T13:45:11;6.07;;;3.15;;
63016;SDS011;50274;45.640;11.756;2023-06-14T13:47:37;6.40;;;2.67;;
63016;SDS011;50274;45.640;11.756;2023-06-14T13:50:04;6.28;;;2.78;;
63016;SDS011;50274;45.640;11.756;2023-06-14T13:52:30;6.13;;;2.95;;
63016;SDS011;50274;45.640;11.756;2023-06-14T13:54:56;7.05;;;2.80;;
63016;SDS011;50274;45.640;11.756;2023-06-14T13:57:22;6.10;;;3.20;;
63016;SDS011;50274;45.640;11.756;2023-06-14T13:59:48;5.13;;;2.60;;
63016;SDS011;50274;45.640;11.756;2023-06-14T14:02:15;5.97;;;2.90;;
63016;SDS011;50274;45.640;11.756;2023-06-14T14:04:41;6.40;;;2.72;;
63016;SDS011;50274;45.640;11.756;2023-06-14T14:07:07;6.40;;;2.90;;
63016;SDS011;50274;45.640;11.756;2023-06-14T14:09:33;7.18;;;2.90;;
63016;SDS011;50274;45.640;11.756;2023-06-14T14:11:59;5.60;;;2.57;;
63016;SDS011;50274;45.640;11.756;2023-06-14T14:14:27;8.18;;;2.53;;
63016;SDS011;50274;45.640;11.756;2023-06-14T14:16:53;7.15;;;3.13;;
63016;SDS011;50274;45.640;11.756;2023-06-14T14:19:23;5.35;;;2.72;;
63016;SDS011;50274;45.640;11.756;2023-06-14T14:21:49;6.43;;;2.65;;
63016;SDS011;50274;45.640;11.756;2023-06-14T14:24:15;7.47;;;2.53;;
63016;SDS011;50274;45.640;11.756;2023-06-14T14:26:41;4.95;;;2.60;;
63016;SDS011;50274;45.640;11.756;2023-06-14T14:29:07;5.05;;;2.50;;
63016;SDS011;50274;45.640;11.756;2023-06-14T14:31:36;5.20;;;2.70;;
63016;SDS011;50274;45.640;11.756;2023-06-14T14:34:02;5.93;;;2.37;;
63016;SDS011;50274;45.640;11.756;2023-06-14T14:36:28;5.07;;;2.47;;
63016;SDS011;50274;45.640;11.756;2023-06-14T14:38:54;7.15;;;2.97;;
63016;SDS011;50274;45.640;11.756;2023-06-14T14:41:20;5.77;;;2.70;;
63016;SDS011;50274;45.640;11.756;2023-06-14T14:43:45;5.45;;;2.70;;
63016;SDS011;50274;45.640;11.756;2023-06-14T14:46:11;6.85;;;2.90;;
63016;SDS011;50274;45.640;11.756;2023-06-14T14:48:37;5.53;;;2.93;;
63016;SDS011;50274;45.640;11.756;2023-06-14T14:51:12;4.80;;;2.58;;
63016;SDS011;50274;45.640;11.756;2023-06-14T14:53:38;5.60;;;2.53;;
63016;SDS011;50274;45.640;11.756;2023-06-14T14:56:04;6.33;;;2.80;;
63016;SDS011;50274;45.640;11.756;2023-06-14T14:58:30;6.15;;;2.80;;